Time;durP1;ratioP1;P1;durP2;ratioP2;P2;SDS_P1;SDS_P2;PMS_P1;PMS_P2;Temp;Humidity;BMP_temperature;BMP_pressure;BME280_temperature;BME280_humidity;BME280_pressure;Samples;Min_cycle;Max_cycle;Signal;HPM_P1;HPM_P2
2021/12/22 14:28:25;;;;;;;10.10;5.35;;;;;;;-10.51;74.05;100263.90;1783107;79;23302;-48
2021/12/22 14:30:51;;;;;;;8.08;4.75;;;;;;;-10.40;73.74;100254.26;1758660;80;21426;-47
2021/12/22 14:33:21;;;;;;;6.97;4.62;;;;;;;-10.07;73.56;100263.95;1763636;80;21789;-48
2021/12/22 14:35:58;;;;;;;7.17;4.10;;;;;;;-9.84;73.21;100261.25;1758870;80;21505;-48
2021/12/22 14:38:27;;;;;;;10.18;4.87;;;;;;;-9.62;72.84;100258.48;1764427;80;21485;-49
2021/12/22 14:40:57;;;;;;;11.22;4.75;;;;;;;-9.43;72.25;100261.09;1770826;80;21611;-48
2021/12/22 14:43:44;;;;;;;7.33;4.20;;;;;;;-9.32;71.91;100260.34;1756726;80;21457;-47
2021/12/22 14:46:13;;;;;;;4.72;3.52;;;;;;;-9.20;70.71;100257.47;1762054;80;21461;-48
2021/12/22 14:48:43;;;;;;;6.62;4.00;;;;;;;-9.06;70.43;100260.27;1743516;80;21869;-48
2021/12/22 14:51:15;;;;;;;5.50;3.52;;;;;;;-8.89;71.25;100262.69;1759533;80;20986;-47
2021/12/22 14:53:56;;;;;;;5.85;3.90;;;;;;;-8.82;69.48;100258.34;1762279;80;21497;-47
2021/12/22 14:56:26;;;;;;;5.67;3.45;;;;;;;-8.78;69.97;100266.59;1761551;80;21426;-47
2021/12/22 14:58:56;;;;;;;4.42;2.83;;;;;;;-8.76;69.19;100261.56;1768897;80;21777;-47
2021/12/22 15:01:24;;;;;;;6.92;3.08;;;;;;;-8.75;68.79;100262.91;1765070;80;21006;-47
2021/12/22 15:03:56;;;;;;;6.42;3.92;;;;;;;-8.67;68.98;100267.94;1773481;80;21442;-47
2021/12/22 15:06:26;;;;;;;6.47;3.45;;;;;;;-8.71;69.65;100271.16;1757962;80;21581;-47
2021/12/22 15:08:54;;;;;;;5.60;4.10;;;;;;;-8.63;72.04;100276.59;1767623;80;20985;-48
2021/12/22 15:11:22;;;;;;;5.75;3.52;;;;;;;-8.64;70.70;100272.31;1772362;80;21825;-47
2021/12/22 15:13:49;;;;;;;5.92;4.00;;;;;;;-8.57;71.16;100273.44;1763182;80;21525;-47
2021/12/22 15:16:18;;;;;;;8.15;4.47;;;;;;;-8.53;71.54;100276.59;1766652;80;21608;-47
2021/12/22 15:18:47;;;;;;;5.62;3.95;;;;;;;-8.42;71.34;100276.66;1763151;80;21525;-47
2021/12/22 15:21:14;;;;;;;7.70;4.45;;;;;;;-8.49;72.33;100283.59;1766704;80;21442;-46
2021/12/22 15:23:40;;;;;;;10.82;5.15;;;;;;;-8.59;76.81;100279.75;1753567;80;21906;-46
2021/12/22 15:26:07;;;;;;;13.68;5.45;;;;;;;-8.56;78.14;100286.27;1774420;80;20973;-47
2021/12/22 15:28:35;;;;;;;10.65;5.20;;;;;;;-8.50;77.59;100292.04;1772154;80;21428;-48
2021/12/22 15:31:02;;;;;;;11.25;5.53;;;;;;;-8.36;75.76;100293.88;1761567;80;21414;-47
2021/12/22 15:33:31;;;;;;;14.55;6.75;;;;;;;-8.23;73.59;100298.70;1759253;80;21421;-48
2021/12/22 15:35:58;;;;;;;12.35;6.58;;;;;;;-8.09;72.62;100291.66;1763130;80;21814;-47
2021/12/22 15:38:25;;;;;;;15.95;6.70;;;;;;;-7.99;72.46;100300.56;1766674;80;21411;-47
2021/12/22 15:40:53;;;;;;;16.67;6.83;;;;;;;-8.03;72.11;100299.56;1771932;80;21480;-47
2021/12/22 15:43:20;;;;;;;10.98;6.42;;;;;;;-8.01;72.92;100297.94;1759850;80;21528;-47
2021/12/22 15:45:48;;;;;;;12.25;5.92;;;;;;;-7.99;72.42;100301.43;1767668;80;21072;-47
2021/12/22 15:48:16;;;;;;;13.80;6.65;;;;;;;-7.98;74.41;100305.73;1776578;78;22158;-49
2021/12/22 15:50:43;;;;;;;11.88;6.10;;;;;;;-8.03;74.37;100310.63;1761599;80;21538;-48
2021/12/22 15:53:10;;;;;;;10.40;6.20;;;;;;;-8.08;74.05;100308.31;1764602;80;20974;-48
2021/12/22 15:55:37;;;;;;;13.05;6.10;;;;;;;-8.22;73.09;100303.88;1763109;79;21021;-49
2021/12/22 15:58:04;;;;;;;10.70;5.95;;;;;;;-8.27;72.53;100304.10;1749109;80;21418;-49
2021/12/22 16:00:35;;;;;;;11.10;5.72;;;;;;;-8.33;71.78;100310.19;1765582;80;21794;-59
2021/12/22 16:03:03;;;;;;;7.35;5.22;;;;;;;-8.46;71.71;100307.94;1766908;80;21379;-49
2021/12/22 16:05:30;;;;;;;;;;;;;;;-8.49;72.12;100307.42;1763942;79;21529;-50
2021/12/22 16:07:57;;;;;;;4.67;3.75;;;;;;;-8.45;72.17;100311.84;1761963;80;20452;-49
2021/12/22 16:10:24;;;;;;;6.25;4.20;;;;;;;-8.40;72.46;100315.83;1764414;80;21079;-49
2021/12/22 16:12:52;;;;;;;6.60;4.40;;;;;;;-8.35;72.12;100312.22;1767605;80;21778;-47
2021/12/22 16:15:19;;;;;;;11.48;4.50;;;;;;;-8.31;72.23;100318.78;1769878;80;21522;-48
2021/12/22 16:17:46;;;;;;;6.00;3.52;;;;;;;-8.30;71.86;100312.89;1767411;80;21053;-49
2021/12/22 16:20:14;;;;;;;7.63;4.20;;;;;;;-8.26;71.94;100322.41;1760204;80;21656;-46
2021/12/22 16:22:41;;;;;;;8.93;4.33;;;;;;;-8.28;71.26;100306.58;1762714;80;21569;-48
2021/12/22 16:25:10;;;;;;;12.85;4.28;;;;;;;-8.35;71.34;100317.31;1761868;80;21494;-51
2021/12/22 16:27:36;;;;;;;7.42;4.30;;;;;;;-8.34;72.30;100319.94;1756674;80;21513;-47
2021/12/22 16:30:06;;;;;;;8.83;4.90;;;;;;;-8.35;72.20;100324.97;1752483;80;21577;-47
2021/12/22 16:32:34;;;;;;;7.03;4.33;;;;;;;-8.45;72.90;100318.63;1751778;79;21676;-48
